Time;durP1;ratioP1;P1;durP2;ratioP2;P2;SDS_P1;SDS_P2;PMS_P1;PMS_P2;Temp;Humidity;BMP_temperature;BMP_pressure;BME280_temperature;BME280_humidity;BME280_pressure;Samples;Min_cycle;Max_cycle;Signal;HPM_P1;HPM_P2
2022/07/25 00:03:22;;;;;;;8.40;7.40;;;;;;;22.19;54.74;100026.16;10158338;29;20084;-76
2022/07/25 00:08:25;;;;;;;8.60;7.78;;;;;;;22.14;54.77;100028.69;10152342;29;20048;-76
2022/07/25 00:13:28;;;;;;;11.02;8.57;;;;;;;22.01;54.93;100021.31;10178274;29;20106;-77
2022/07/25 00:18:32;;;;;;;10.40;8.23;;;;;;;21.98;55.04;100014.38;10155437;29;20067;-77
2022/07/25 00:23:35;;;;;;;9.63;8.13;;;;;;;21.93;55.35;100013.31;10165840;29;20055;-77
2022/07/25 00:28:38;;;;;;;9.88;8.30;;;;;;;21.94;54.91;100009.50;10152208;29;20048;-78
2022/07/25 00:33:42;;;;;;;13.95;8.57;;;;;;;21.93;54.87;100005.09;10153728;29;20048;-76
2022/07/25 00:38:45;;;;;;;9.43;7.43;;;;;;;21.89;55.21;100005.53;10136470;29;20530;-77
2022/07/25 00:43:48;;;;;;;8.95;7.95;;;;;;;21.95;55.27;100009.31;10166826;29;20082;-77
2022/07/25 00:48:52;;;;;;;10.30;7.97;;;;;;;21.94;54.94;99996.69;10160753;29;20062;-77
2022/07/25 00:53:57;;;;;;;13.32;9.48;;;;;;;21.90;54.70;100000.88;10174770;29;21297;-77
2022/07/25 00:59:00;;;;;;;10.57;7.88;;;;;;;21.80;54.82;99994.97;10173294;29;20058;-77
2022/07/25 01:04:05;;;;;;;9.35;7.43;;;;;;;21.70;55.20;99986.31;10141177;29;20056;-77
2022/07/25 01:09:09;;;;;;;10.73;8.35;;;;;;;21.65;54.90;99986.94;10140578;29;20054;-77
2022/07/25 01:14:12;;;;;;;11.57;7.50;;;;;;;21.49;54.91;99982.69;10143429;29;20087;-76
2022/07/25 01:19:16;;;;;;;8.82;7.40;;;;;;;21.35;55.46;99961.84;10154113;29;20079;-77
2022/07/25 01:24:20;;;;;;;8.10;7.38;;;;;;;21.42;54.73;99963.56;10164977;29;20132;-76
2022/07/25 01:29:23;;;;;;;9.43;8.20;;;;;;;21.37;54.69;99957.03;10162732;29;20054;-75
2022/07/25 01:34:26;;;;;;;11.02;8.27;;;;;;;21.27;54.46;99968.31;10147565;29;20055;-76
2022/07/25 01:39:30;;;;;;;8.30;7.50;;;;;;;21.28;54.64;99958.22;10141817;29;20482;-77
2022/07/25 01:44:33;;;;;;;7.50;6.80;;;;;;;21.27;54.26;99964.75;10152111;29;20079;-77
2022/07/25 01:49:36;;;;;;;8.82;7.78;;;;;;;21.31;54.08;99949.63;10148647;29;20098;-77
2022/07/25 01:54:41;;;;;;;10.30;8.15;;;;;;;21.27;53.81;99940.19;10165007;29;20055;-77
2022/07/25 01:59:45;;;;;;;8.68;7.25;;;;;;;21.27;53.53;99935.53;10148506;29;20117;-77
2022/07/25 02:04:48;;;;;;;8.85;7.40;;;;;;;21.21;53.33;99933.66;10158050;29;20048;-77
2022/07/25 02:09:52;;;;;;;8.88;7.47;;;;;;;21.21;53.60;99925.44;10188104;29;20047;-77
2022/07/25 02:14:58;;;;;;;9.80;7.82;;;;;;;21.17;53.53;99924.16;10147152;29;20048;-77
2022/07/25 02:20:01;;;;;;;7.80;7.00;;;;;;;21.11;53.35;99912.16;10149502;29;20759;-77
2022/07/25 02:25:06;;;;;;;8.38;7.45;;;;;;;21.15;53.25;99904.44;10147177;29;20047;-76
2022/07/25 02:30:10;;;;;;;10.45;8.00;;;;;;;21.15;53.18;99904.44;10139747;29;21180;-77
2022/07/25 02:35:13;;;;;;;11.93;7.00;;;;;;;21.00;53.16;99893.63;10145623;29;20060;-77
2022/07/25 02:40:17;;;;;;;11.73;8.32;;;;;;;20.93;53.02;99887.31;10163794;29;20051;-77
2022/07/25 02:45:20;;;;;;;9.80;7.45;;;;;;;20.92;53.21;99889.19;10149219;29;20052;-77
2022/07/25 02:50:23;;;;;;;8.35;6.88;;;;;;;20.87;53.45;99891.69;10147537;29;20048;-77
2022/07/25 02:55:28;;;;;;;10.85;7.32;;;;;;;20.90;53.22;99885.84;10154192;29;20048;-77
2022/07/25 03:00:30;;;;;;;7.75;6.93;;;;;;;20.82;53.02;99886.00;10163464;29;20068;-77
2022/07/25 03:05:33;;;;;;;8.45;7.18;;;;;;;20.79;52.88;99881.78;10138826;29;20079;-77
2022/07/25 03:10:38;;;;;;;8.25;7.38;;;;;;;20.74;52.95;99880.72;10145498;29;20418;-77
2022/07/25 03:15:41;;;;;;;10.75;7.43;;;;;;;20.74;52.70;99881.56;10159206;29;20048;-77
2022/07/25 03:20:43;;;;;;;7.45;6.85;;;;;;;20.70;52.56;99879.44;10149342;29;20114;-77
2022/07/25 03:25:48;;;;;;;11.45;6.93;;;;;;;20.74;52.66;99875.28;10190540;29;20048;-77
2022/07/25 03:30:51;;;;;;;8.80;7.32;;;;;;;20.74;52.70;99867.09;10158401;29;20060;-77
2022/07/25 03:35:55;;;;;;;8.20;7.38;;;;;;;20.70;52.71;99873.97;10150651;29;20063;-77
2022/07/25 03:40:59;;;;;;;7.45;6.80;;;;;;;20.59;53.03;99867.22;10164510;29;20201;-77
2022/07/25 03:46:02;;;;;;;12.98;7.47;;;;;;;20.56;52.73;99846.63;10157032;29;20087;-77
2022/07/25 03:51:05;;;;;;;7.53;6.82;;;;;;;20.51;53.03;99842.81;10146912;29;20517;-76
2022/07/25 03:56:10;;;;;;;8.00;6.85;;;;;;;20.50;52.65;99841.16;10142741;29;20047;-77
2022/07/25 04:01:13;;;;;;;9.00;6.68;;;;;;;20.60;52.51;99824.38;10152009;29;20055;-77
2022/07/25 04:06:16;;;;;;;8.82;6.38;;;;;;;20.58;52.40;99821.88;10158581;29;20056;-77
2022/07/25 04:11:21;;;;;;;7.93;6.75;;;;;;;20.66;52.12;99823.59;10150401;29;20528;-77
2022/07/25 04:16:24;;;;;;;7.65;6.80;;;;;;;20.65;52.32;99810.97;10155661;29;20542;-77
2022/07/25 04:21:29;;;;;;;9.52;6.90;;;;;;;20.60;52.11;99806.16;10161595;29;20182;-77
2022/07/25 04:26:34;;;;;;;8.38;7.20;;;;;;;20.67;52.48;99793.34;10156955;29;20058;-77
2022/07/25 04:31:36;;;;;;;8.45;6.95;;;;;;;20.78;52.00;99797.38;10175411;29;20055;-77
2022/07/25 04:36:39;;;;;;;11.35;7.20;;;;;;;20.93;51.50;99789.88;10153248;29;20051;-77
2022/07/25 04:41:44;;;;;;;8.88;6.22;;;;;;;20.90;51.60;99784.84;10144548;29;20540;-76
2022/07/25 04:46:47;;;;;;;7.50;6.28;;;;;;;20.88;51.75;99776.00;10161474;29;20059;-77
2022/07/25 04:51:49;;;;;;;11.35;6.85;;;;;;;21.13;51.31;99778.19;10163224;29;20521;-76
2022/07/25 04:56:54;;;;;;;8.05;6.82;;;;;;;21.22;50.88;99777.75;10146942;29;20143;-77
2022/07/25 05:01:57;;;;;;;7.15;6.55;;;;;;;21.36;50.66;99770.41;10142175;29;20510;-76
2022/07/25 05:07:00;;;;;;;8.05;6.80;;;;;;;21.47;50.29;99763.47;10140025;29;20052;-76
2022/07/25 05:12:04;;;;;;;7.00;6.30;;;;;;;21.58;50.34;99762.81;10143417;29;20055;-76
2022/07/25 05:17:07;;;;;;;10.68;6.85;;;;;;;21.72;50.28;99763.69;10173777;29;20077;-76
2022/07/25 05:22:10;;;;;;;8.63;6.90;;;;;;;21.87;50.65;99755.25;10169487;29;20120;-76
2022/07/25 05:27:14;;;;;;;8.77;7.03;;;;;;;22.10;49.67;99761.09;10175973;29;20059;-76
2022/07/25 05:32:17;;;;;;;7.28;6.50;;;;;;;22.28;49.10;99754.91;10173984;29;20059;-76
2022/07/25 05:37:20;;;;;;;9.25;6.75;;;;;;;22.58;48.95;99751.66;10170864;29;20675;-76
2022/07/25 05:42:24;;;;;;;10.70;6.82;;;;;;;22.89;48.70;99747.28;10166475;29;20079;-76
2022/07/25 05:47:27;;;;;;;7.25;6.60;;;;;;;23.11;48.12;99740.41;10153044;28;20063;-76
2022/07/25 05:52:30;;;;;;;6.82;6.13;;;;;;;23.37;47.58;99744.00;10172565;28;20047;-76
2022/07/25 05:57:35;;;;;;;8.32;6.43;;;;;;;23.56;46.68;99732.00;10173757;28;20051;-76
2022/07/25 06:02:38;;;;;;;10.05;6.13;;;;;;;23.81;46.58;99733.91;10182913;29;20051;-76
2022/07/25 06:07:41;;;;;;;7.53;6.82;;;;;;;23.92;46.84;99732.31;10137858;29;20514;-76
2022/07/25 06:12:46;;;;;;;7.55;6.45;;;;;;;24.03;46.56;99721.41;10158291;29;21246;-76
2022/07/25 06:17:49;;;;;;;9.32;6.53;;;;;;;24.21;46.12;99722.47;10162545;29;20059;-76
2022/07/25 06:22:52;;;;;;;8.02;6.80;;;;;;;24.46;45.95;99717.72;10161516;29;20075;-76
2022/07/25 06:27:56;;;;;;;8.57;6.18;;;;;;;24.92;45.83;99710.72;10154961;29;20051;-76
2022/07/25 06:32:59;;;;;;;9.40;7.20;;;;;;;25.30;45.26;99714.16;10148901;29;20044;-76
2022/07/25 06:38:03;;;;;;;8.07;6.75;;;;;;;25.48;44.27;99704.97;10142888;29;20059;-76
2022/07/25 06:43:07;;;;;;;8.63;6.25;;;;;;;25.75;44.23;99692.41;10167413;29;20059;-76
2022/07/25 06:48:10;;;;;;;8.88;6.40;;;;;;;26.07;43.77;99701.09;10182197;29;20421;-76
2022/07/25 06:53:13;;;;;;;7.25;6.47;;;;;;;26.22;43.79;99694.22;10158107;29;20083;-76
2022/07/25 06:58:17;;;;;;;8.93;6.35;;;;;;;26.38;43.64;99695.41;10165255;29;20047;-76
2022/07/25 07:03:24;;;;;;;7.57;6.00;;;;;;;26.74;42.96;99691.38;10171353;29;20106;-76
2022/07/25 07:08:27;;;;;;;8.02;6.25;;;;;;;26.97;42.25;99689.63;10157842;29;20147;-76
2022/07/25 07:13:31;;;;;;;8.90;6.45;;;;;;;27.11;41.57;99686.28;10141655;29;20266;-76
2022/07/25 07:18:34;;;;;;;7.00;6.30;;;;;;;27.45;41.01;99672.50;10141796;29;20068;-77
2022/07/25 07:23:37;;;;;;;7.53;6.65;;;;;;;27.70;40.10;99671.19;10141087;29;20056;-76
2022/07/25 07:28:42;;;;;;;7.07;6.43;;;;;;;28.05;40.02;99663.41;10142366;29;20051;-77
2022/07/25 07:33:46;;;;;;;8.13;6.57;;;;;;;28.60;38.37;99657.97;10140738;29;20678;-77
2022/07/25 07:38:48;;;;;;;8.02;6.95;;;;;;;29.00;38.32;99662.19;10140280;29;20455;-78
2022/07/25 07:43:53;;;;;;;11.38;6.93;;;;;;;28.89;36.79;99652.97;10149039;29;20066;-78
2022/07/25 07:48:55;;;;;;;8.02;6.30;;;;;;;29.27;35.62;99651.09;10151059;29;21187;-78
2022/07/25 07:59:20;;;;;;;7.50;6.75;;;;;;;30.89;33.28;99633.44;10194822;29;20051;-78
2022/07/25 08:04:23;;;;;;;7.45;6.43;;;;;;;29.93;34.81;99631.28;10179760;29;20051;-77
2022/07/25 08:09:26;;;;;;;10.77;6.40;;;;;;;29.04;36.80;99633.75;10148886;29;20067;-78
2022/07/25 08:14:31;;;;;;;7.88;7.10;;;;;;;29.14;36.79;99625.56;10146906;29;20047;-78
2022/07/25 08:19:34;;;;;;;7.78;6.50;;;;;;;29.29;37.14;99611.03;10181034;28;20048;-78
2022/07/25 08:24:37;;;;;;;6.93;6.22;;;;;;;29.78;36.31;99620.97;10179782;28;20087;-78
2022/07/25 08:29:41;;;;;;;9.95;6.78;;;;;;;30.02;35.82;99613.84;10170556;29;20134;-78
2022/07/25 08:34:44;;;;;;;7.13;6.43;;;;;;;29.99;35.81;99605.28;10182710;29;20532;-78
2022/07/25 08:39:49;;;;;;;6.95;6.10;;;;;;;30.54;35.27;99614.84;10179460;29;20063;-79
2022/07/25 08:44:58;;;;;;;7.03;6.35;;;;;;;30.37;35.05;99598.47;10164663;29;20056;-78
2022/07/25 08:50:03;;;;;;;6.38;5.75;;;;;;;30.17;34.93;99607.59;10143795;29;20060;-79
2022/07/25 08:55:09;;;;;;;9.75;6.60;;;;;;;30.36;34.96;99599.59;10174670;28;20054;-79
2022/07/25 09:00:18;;;;;;;7.90;6.18;;;;;;;30.05;35.70;99587.56;10180721;28;20056;-79
2022/07/25 09:05:21;;;;;;;6.65;6.05;;;;;;;30.61;35.04;99582.16;10172288;29;20057;-78
2022/07/25 09:10:27;;;;;;;7.05;6.00;;;;;;;30.12;35.75;99582.63;10163626;28;20119;-79
2022/07/25 09:15:33;;;;;;;7.70;6.32;;;;;;;29.61;36.18;99598.22;10162536;28;20059;-78
2022/07/25 09:20:39;;;;;;;7.55;6.82;;;;;;;30.39;35.32;99578.78;10167772;29;20052;-79
2022/07/25 09:25:43;;;;;;;7.47;5.75;;;;;;;30.63;35.55;99577.13;10175241;29;21209;-79
2022/07/25 09:30:58;;;;;;;6.90;6.25;;;;;;;31.01;35.00;99580.47;10168757;28;20063;-79
2022/07/25 09:36:10;;;;;;;7.63;6.07;;;;;;;30.32;34.88;99581.00;10156529;28;20143;-76
2022/07/25 09:41:13;;;;;;;6.53;5.95;;;;;;;30.69;34.70;99566.91;10158188;29;20071;-76
2022/07/25 09:46:18;;;;;;;6.40;5.90;;;;;;;30.09;34.08;99583.16;10155597;28;20552;-78
2022/07/25 09:51:22;;;;;;;6.65;5.95;;;;;;;30.08;34.36;99575.94;10155718;29;20056;-77
2022/07/25 09:56:25;;;;;;;9.38;5.97;;;;;;;29.96;34.84;99575.38;10154199;29;20051;-79
2022/07/25 10:01:36;;;;;;;10.05;6.45;;;;;;;30.74;34.03;99574.41;10172496;28;20052;-78
2022/07/25 10:06:48;;;;;;;8.90;6.20;;;;;;;30.26;33.78;99582.94;10179273;28;20058;-79
2022/07/25 10:12:04;;;;;;;6.43;5.88;;;;;;;29.61;35.41;99598.22;10154679;29;20052;-78
2022/07/25 10:17:09;;;;;;;6.47;5.88;;;;;;;29.54;35.81;99595.66;10147795;29;20071;-78
2022/07/25 10:22:12;;;;;;;8.05;6.03;;;;;;;29.67;36.53;99583.28;10151629;29;20540;-78
2022/07/25 10:27:23;;;;;;;7.53;6.80;;;;;;;29.71;35.92;99563.13;10163050;29;20048;-79
2022/07/25 10:32:34;;;;;;;6.93;6.22;;;;;;;29.60;36.33;99564.19;10161752;29;20047;-79
2022/07/25 10:37:37;;;;;;;8.07;6.37;;;;;;;30.14;35.32;99568.50;10174433;29;20520;-78
2022/07/25 10:42:45;;;;;;;8.10;6.28;;;;;;;29.99;36.27;99574.81;10167089;29;20052;-79
2022/07/25 10:47:54;;;;;;;9.90;6.45;;;;;;;29.79;36.28;99581.13;10165581;29;20114;-79
2022/07/25 10:52:59;;;;;;;7.68;6.97;;;;;;;30.01;36.79;99586.47;10164599;29;20059;-80
2022/07/25 10:58:05;;;;;;;7.63;6.57;;;;;;;30.18;35.10;99578.78;10171854;29;20075;-79
2022/07/25 11:03:25;;;;;;;9.17;6.70;;;;;;;31.04;33.98;99568.81;10167605;29;20115;-79
2022/07/25 11:08:32;;;;;;;11.18;6.60;;;;;;;32.36;32.92;99563.03;10171727;29;20111;-79
2022/07/25 11:13:38;;;;;;;6.03;5.43;;;;;;;32.23;31.38;99562.59;10164056;29;20059;-79
2022/07/25 11:18:43;;;;;;;10.98;6.30;;;;;;;32.25;32.17;99553.13;10160400;29;20093;-78
2022/07/25 11:23:50;;;;;;;6.50;5.85;;;;;;;32.34;31.35;99552.22;10180300;29;20059;-78
2022/07/25 11:28:53;;;;;;;6.47;5.95;;;;;;;31.55;32.24;99554.00;10172310;29;20391;-78
2022/07/25 11:33:57;;;;;;;6.68;5.38;;;;;;;30.94;33.36;99566.09;10172056;29;20048;-78
2022/07/25 11:39:00;;;;;;;6.65;5.93;;;;;;;30.59;34.10;99584.38;10176631;29;20059;-78
2022/07/25 11:44:04;;;;;;;8.23;6.25;;;;;;;30.12;35.43;99579.03;10184199;29;20067;-78
2022/07/25 11:49:08;;;;;;;8.07;5.90;;;;;;;30.04;35.72;99566.53;10184153;29;20584;-79
2022/07/25 11:54:12;;;;;;;6.88;6.15;;;;;;;29.74;36.09;99568.09;10180043;29;20059;-77
2022/07/25 11:59:15;;;;;;;7.35;6.65;;;;;;;29.46;36.38;99563.00;10207508;28;20682;-78
2022/07/25 12:04:20;;;;;;;7.65;6.10;;;;;;;29.92;36.50;99554.88;10178078;29;20048;-78
2022/07/25 12:09:23;;;;;;;7.43;6.50;;;;;;;29.25;37.37;99556.50;10188313;29;20044;-78
2022/07/25 12:14:26;;;;;;;7.35;6.65;;;;;;;29.03;37.30;99556.63;10184850;29;20048;-78
2022/07/25 12:19:35;;;;;;;7.05;6.30;;;;;;;29.95;36.63;99559.84;10171008;29;20071;-79
2022/07/25 12:24:38;;;;;;;7.90;6.38;;;;;;;30.74;35.36;99550.28;10184712;28;20142;-78
2022/07/25 12:29:40;;;;;;;6.65;6.10;;;;;;;31.29;34.65;99548.56;10162141;29;20087;-79
2022/07/25 12:34:45;;;;;;;9.98;7.50;;;;;;;31.76;34.18;99550.06;10190614;29;20048;-78
2022/07/25 12:39:48;;;;;;;6.53;5.82;;;;;;;32.26;32.94;99558.41;10167420;29;20048;-78
2022/07/25 12:44:51;;;;;;;6.57;5.97;;;;;;;32.03;32.48;99546.00;10172295;29;20096;-79
2022/07/25 12:49:56;;;;;;;6.20;5.60;;;;;;;32.05;33.08;99537.41;10177586;29;20054;-77
2022/07/25 12:54:58;;;;;;;6.25;5.40;;;;;;;31.88;33.18;99549.72;10157208;29;20686;-79
2022/07/25 13:00:02;;;;;;;6.93;6.28;;;;;;;32.05;33.37;99538.22;10181644;29;20055;-78
2022/07/25 13:05:07;;;;;;;7.60;6.15;;;;;;;31.28;34.22;99537.75;10182266;29;20394;-79
2022/07/25 13:10:11;;;;;;;6.32;5.60;;;;;;;31.38;33.95;99529.41;10151605;29;20059;-78
2022/07/25 13:15:14;;;;;;;7.22;6.40;;;;;;;32.11;33.00;99528.72;10168939;29;20699;-80
2022/07/25 13:20:18;;;;;;;7.13;6.03;;;;;;;31.60;33.53;99559.53;10171605;29;20044;-79
2022/07/25 13:25:21;;;;;;;7.38;5.72;;;;;;;32.01;33.61;99537.97;10179126;29;20051;-79
2022/07/25 13:30:24;;;;;;;7.28;6.65;;;;;;;31.55;34.36;99532.63;10168445;29;20390;-80
2022/07/25 13:35:29;;;;;;;7.15;6.53;;;;;;;31.03;35.35;99533.91;10161096;28;20171;-79
2022/07/25 13:40:41;;;;;;;8.45;6.75;;;;;;;31.12;35.40;99537.75;10166704;29;20070;-79
2022/07/25 13:45:43;;;;;;;7.68;6.65;;;;;;;30.76;36.03;99527.84;10167074;29;20051;-79
2022/07/25 13:50:48;;;;;;;10.57;7.72;;;;;;;30.82;36.04;99529.50;10177300;29;20056;-79
2022/07/25 13:55:51;;;;;;;8.48;6.45;;;;;;;30.48;36.03;99552.22;10165567;29;20068;-79
2022/07/25 14:00:54;;;;;;;12.13;6.63;;;;;;;30.08;36.76;99545.50;10165503;29;20055;-80
2022/07/25 14:05:59;;;;;;;7.88;7.00;;;;;;;29.75;37.89;99536.56;10178091;29;20039;-78
2022/07/25 14:11:04;;;;;;;8.93;7.53;;;;;;;30.35;37.77;99550.81;10193615;29;20574;-80
2022/07/25 14:16:07;;;;;;;10.68;7.15;;;;;;;29.68;38.16;99543.47;10179546;29;20048;-79
2022/07/25 14:21:11;;;;;;;12.40;8.32;;;;;;;29.66;39.43;99543.72;10161735;29;20063;-78
2022/07/25 14:26:14;;;;;;;13.73;8.68;;;;;;;29.65;38.86;99544.84;10159901;29;20066;-78
2022/07/25 14:31:17;;;;;;;12.52;7.78;;;;;;;30.12;38.18;99546.63;10165642;29;20055;-80
2022/07/25 14:36:22;;;;;;;12.73;6.95;;;;;;;29.99;37.84;99536.06;10163860;29;21233;-79
2022/07/25 14:41:25;;;;;;;8.05;6.45;;;;;;;29.78;39.17;99540.72;10165316;29;20086;-79
2022/07/25 14:46:27;;;;;;;8.75;6.25;;;;;;;28.49;40.37;99550.09;10170955;29;20048;-79
2022/07/25 14:51:32;;;;;;;7.63;5.22;;;;;;;29.21;38.74;99545.16;10171264;29;20051;-79
2022/07/25 14:56:35;;;;;;;9.07;5.35;;;;;;;28.86;39.86;99554.84;10173424;29;20044;-78
2022/07/25 15:01:39;;;;;;;6.70;5.40;;;;;;;29.31;38.58;99561.78;10175866;29;21628;-80
2022/07/25 15:06:43;;;;;;;7.53;5.03;;;;;;;29.49;37.89;99560.50;10169489;29;20389;-78
2022/07/25 15:11:46;;;;;;;5.03;4.53;;;;;;;28.27;39.28;99575.03;10170331;29;20055;-80
2022/07/25 15:16:49;;;;;;;11.02;4.60;;;;;;;27.18;40.90;99586.91;10177672;29;21305;-78
2022/07/25 15:21:53;;;;;;;4.85;4.32;;;;;;;27.38;40.87;99587.19;10178344;29;20086;-78
2022/07/25 15:26:57;;;;;;;6.85;4.07;;;;;;;27.84;40.76;99573.19;10208995;29;20052;-77
2022/07/25 15:32:02;;;;;;;8.02;4.18;;;;;;;28.64;39.20;99579.00;10216059;28;20548;-78
2022/07/25 15:37:06;;;;;;;4.80;4.03;;;;;;;28.33;39.79;99575.09;10203130;28;20052;-78
2022/07/25 15:42:09;;;;;;;7.72;3.65;;;;;;;27.10;41.63;99593.69;10181516;29;20526;-78
2022/07/25 15:47:12;;;;;;;3.45;3.15;;;;;;;27.63;41.46;99594.16;10185330;28;20048;-77
2022/07/25 15:52:16;;;;;;;5.18;2.60;;;;;;;27.38;41.13;99609.25;10181256;28;20071;-79
2022/07/25 15:57:19;;;;;;;6.57;2.92;;;;;;;27.14;41.72;99608.59;10183822;29;20044;-79
2022/07/25 16:02:22;;;;;;;6.68;2.63;;;;;;;27.44;41.88;99635.00;10174626;28;20048;-77
2022/07/25 16:07:27;;;;;;;3.35;2.55;;;;;;;26.93;42.56;99606.63;10176861;28;20481;-77
2022/07/25 16:12:30;;;;;;;4.97;3.00;;;;;;;26.54;43.62;99630.44;10150020;29;20040;-77
2022/07/25 16:17:34;;;;;;;5.25;2.85;;;;;;;26.57;44.18;99624.44;10168507;29;20064;-77
2022/07/25 16:22:38;;;;;;;4.88;2.20;;;;;;;26.46;44.71;99617.91;10166112;28;20076;-77
2022/07/25 16:27:41;;;;;;;3.75;2.10;;;;;;;26.91;44.22;99628.94;10160879;28;20991;-77
2022/07/25 16:32:44;;;;;;;8.32;2.22;;;;;;;26.50;44.91;99658.47;10149106;28;21317;-78
2022/07/25 16:37:48;;;;;;;7.55;2.20;;;;;;;26.31;44.73;99667.19;10158926;28;20572;-78
2022/07/25 16:42:54;;;;;;;3.30;2.15;;;;;;;25.65;46.26;99675.72;10161858;28;20485;-78
2022/07/25 16:47:57;;;;;;;11.48;2.50;;;;;;;25.31;46.79;99680.94;10166272;29;20052;-77
2022/07/25 16:53:01;;;;;;;8.43;2.50;;;;;;;24.45;48.79;99685.03;10166854;28;20051;-78
2022/07/25 16:58:04;;;;;;;5.28;2.20;;;;;;;24.23;49.20;99677.25;10180493;28;20195;-77
2022/07/25 17:03:07;;;;;;;4.53;2.40;;;;;;;24.64;48.07;99692.13;10164975;29;20055;-77
2022/07/25 17:08:11;;;;;;;6.75;3.20;;;;;;;24.28;48.73;99702.09;10154877;29;20115;-78
2022/07/25 17:13:14;;;;;;;5.65;2.45;;;;;;;24.86;47.49;99711.66;10152551;29;20131;-77
2022/07/25 17:18:17;;;;;;;7.65;3.40;;;;;;;24.12;48.21;99710.97;10157987;29;21261;-77
2022/07/25 17:23:21;;;;;;;7.90;3.75;;;;;;;23.95;48.43;99724.47;10149832;29;20183;-77
2022/07/25 17:28:25;;;;;;;7.35;3.90;;;;;;;23.81;48.50;99718.28;10158959;29;20052;-77
2022/07/25 17:33:28;;;;;;;9.73;3.63;;;;;;;24.05;47.98;99718.44;10158627;28;20055;-77
2022/07/25 17:38:32;;;;;;;8.52;4.00;;;;;;;23.91;47.89;99709.53;10153982;29;20545;-77
2022/07/25 17:43:37;;;;;;;6.57;2.83;;;;;;;23.89;47.82;99719.91;10154844;29;20048;-77
2022/07/25 17:48:40;;;;;;;7.00;3.60;;;;;;;26.26;43.07;99717.47;10154504;29;20107;-77
2022/07/25 17:53:45;;;;;;;4.07;3.30;;;;;;;26.88;40.80;99706.56;10145601;29;20056;-76
2022/07/25 17:58:48;;;;;;;8.27;3.60;;;;;;;24.31;45.97;99720.03;10149981;29;20059;-77
2022/07/25 18:03:51;;;;;;;4.13;2.65;;;;;;;23.55;47.70;99744.03;10152412;29;20078;-77
2022/07/25 18:08:55;;;;;;;8.18;3.30;;;;;;;23.22;48.48;99736.09;10152274;29;20067;-77
2022/07/25 18:13:58;;;;;;;4.72;3.15;;;;;;;23.09;49.46;99731.56;10153672;29;20056;-76
2022/07/25 18:19:01;;;;;;;3.90;2.92;;;;;;;22.93;49.50;99732.94;10150463;29;20083;-77
2022/07/25 18:24:06;;;;;;;5.53;3.25;;;;;;;23.63;48.16;99741.00;10150023;29;20127;-77
2022/07/25 18:29:09;;;;;;;4.47;3.17;;;;;;;23.56;48.31;99750.34;10148982;29;20063;-77
2022/07/25 18:34:12;;;;;;;7.03;3.13;;;;;;;23.30;48.68;99748.69;10163066;29;20095;-76
2022/07/25 18:39:17;;;;;;;5.25;3.35;;;;;;;23.54;48.28;99755.22;10151173;29;20100;-76
2022/07/25 18:44:19;;;;;;;8.68;3.38;;;;;;;23.43;48.72;99762.28;10144995;29;20052;-77
2022/07/25 18:49:22;;;;;;;8.45;3.30;;;;;;;23.21;49.39;99756.34;10144479;29;20079;-76
2022/07/25 18:54:27;;;;;;;4.75;3.17;;;;;;;23.07;49.49;99766.53;10155294;29;20060;-76
2022/07/25 18:59:30;;;;;;;11.75;4.28;;;;;;;23.25;49.23;99775.91;10160175;29;20563;-77
2022/07/25 19:04:32;;;;;;;3.55;3.25;;;;;;;23.11;49.55;99776.00;10154731;29;20055;-76
2022/07/25 19:09:37;;;;;;;5.15;3.50;;;;;;;22.29;51.70;99789.41;10156322;28;20048;-76
2022/07/25 19:14:40;;;;;;;4.68;3.58;;;;;;;22.84;50.38;99783.50;10163711;29;20131;-76
2022/07/25 19:19:43;;;;;;;5.85;3.50;;;;;;;22.67;50.72;99796.88;10145957;29;20139;-77
2022/07/25 19:24:47;;;;;;;9.98;4.00;;;;;;;22.62;50.62;99798.59;10158029;29;20512;-76
2022/07/25 19:29:50;;;;;;;6.55;3.85;;;;;;;21.98;51.85;99814.75;10165254;29;20519;-77
2022/07/25 19:34:53;;;;;;;5.95;3.67;;;;;;;21.92;52.00;99817.50;10187198;28;21340;-76
2022/07/25 19:39:57;;;;;;;6.22;4.35;;;;;;;22.02;51.60;99826.09;10165825;28;20767;-76
2022/07/25 19:45:00;;;;;;;5.97;3.28;;;;;;;21.97;51.23;99826.75;10163696;28;20127;-76
2022/07/25 19:50:04;;;;;;;8.50;3.85;;;;;;;22.00;50.99;99842.72;10157021;28;20055;-76
2022/07/25 19:55:09;;;;;;;8.00;3.95;;;;;;;21.78;51.35;99854.97;10178920;28;20568;-76
2022/07/25 20:00:13;;;;;;;7.82;3.95;;;;;;;21.75;51.06;99850.75;10163487;29;20060;-77
2022/07/25 20:05:16;;;;;;;10.90;3.03;;;;;;;21.73;50.57;99851.97;10174206;29;20091;-77
2022/07/25 20:10:20;;;;;;;6.85;3.10;;;;;;;21.86;49.63;99852.84;10166724;29;20055;-77
2022/07/25 20:15:23;;;;;;;5.68;2.58;;;;;;;21.85;49.51;99862.06;10178251;29;20097;-77
2022/07/25 20:20:26;;;;;;;7.70;3.10;;;;;;;21.92;49.24;99885.88;10162699;28;20044;-77
2022/07/25 20:25:31;;;;;;;7.47;2.47;;;;;;;21.53;49.13;99877.41;10164525;28;20055;-76
2022/07/25 20:30:33;;;;;;;7.45;2.25;;;;;;;21.26;48.51;99883.88;10151963;28;20543;-77
2022/07/25 20:35:37;;;;;;;5.03;1.50;;;;;;;21.27;48.56;99885.53;10160493;29;20058;-77
2022/07/25 20:40:42;;;;;;;6.75;1.45;;;;;;;21.42;47.85;99900.72;10161207;28;20052;-75
2022/07/25 20:45:51;;;;;;;6.85;1.42;;;;;;;21.38;48.03;99907.63;10163383;28;20063;-77
2022/07/25 20:50:54;;;;;;;5.55;1.55;;;;;;;21.30;47.64;99907.81;10151916;29;20060;-77
2022/07/25 20:55:58;;;;;;;8.10;1.50;;;;;;;21.03;48.19;99906.84;10157856;29;20115;-78
2022/07/25 21:01:01;;;;;;;8.35;1.70;;;;;;;20.59;49.29;99901.84;10148994;29;20155;-76
2022/07/25 21:06:04;;;;;;;8.43;1.95;;;;;;;20.73;48.70;99917.22;10149706;29;20088;-77
2022/07/25 21:11:10;;;;;;;6.82;1.33;;;;;;;21.08;48.49;99914.47;10159467;29;20418;-77
2022/07/25 21:16:13;;;;;;;3.10;1.33;;;;;;;21.26;47.82;99919.38;10147243;29;20143;-78
2022/07/25 21:21:16;;;;;;;12.40;1.30;;;;;;;20.77;48.64;99926.72;10162122;29;20063;-78
2022/07/25 21:26:20;;;;;;;7.93;1.65;;;;;;;20.56;49.35;99925.75;10156908;29;20055;-77
2022/07/25 21:31:23;;;;;;;4.88;1.50;;;;;;;20.44;49.72;99932.81;10156806;29;20049;-77
2022/07/25 21:36:27;;;;;;;4.10;1.13;;;;;;;20.10;50.71;99939.91;10157279;29;20165;-77
2022/07/25 21:41:31;;;;;;;5.53;1.08;;;;;;;19.86;50.78;99949.31;10155629;29;20178;-77
2022/07/25 21:46:34;;;;;;;6.20;1.27;;;;;;;20.24;50.48;99946.28;10148963;29;20064;-77
2022/07/25 21:51:37;;;;;;;7.75;1.52;;;;;;;20.38;50.19;99954.56;10156396;29;20052;-78
2022/07/25 21:56:44;;;;;;;7.50;1.48;;;;;;;20.26;50.66;99952.38;10148240;29;20523;-77
2022/07/25 22:01:46;;;;;;;3.95;1.20;;;;;;;20.01;51.03;99953.84;10153530;29;20281;-76
2022/07/25 22:06:49;;;;;;;3.17;1.30;;;;;;;19.62;52.17;99971.50;10141731;29;21208;-76
2022/07/25 22:11:55;;;;;;;5.45;1.02;;;;;;;19.74;51.77;99964.50;10148561;29;20075;-76
2022/07/25 22:16:58;;;;;;;8.32;1.13;;;;;;;20.04;51.38;99967.91;10155907;29;20052;-77
2022/07/25 22:22:02;;;;;;;5.47;1.27;;;;;;;20.15;50.78;99974.72;10167379;29;20875;-77
2022/07/25 22:27:07;;;;;;;6.95;1.27;;;;;;;19.95;51.42;99973.72;10152999;29;20052;-77
2022/07/25 22:32:10;;;;;;;4.88;1.50;;;;;;;19.86;52.25;99981.19;10148241;29;20536;-77
2022/07/25 22:37:13;;;;;;;5.47;1.23;;;;;;;19.72;52.25;99982.06;10152662;29;20071;-76
2022/07/25 22:42:17;;;;;;;3.13;1.20;;;;;;;19.93;51.58;99987.53;10165297;29;20815;-76
2022/07/25 22:47:19;;;;;;;8.35;1.23;;;;;;;20.09;51.35;99979.09;10160156;29;20048;-76
2022/07/25 22:52:22;;;;;;;8.80;1.38;;;;;;;20.00;51.55;99982.16;10146401;29;20052;-76
2022/07/25 22:57:26;;;;;;;5.43;1.10;;;;;;;19.88;51.83;99992.72;10152203;29;20195;-76
2022/07/25 23:02:29;;;;;;;6.25;1.77;;;;;;;20.04;51.22;99994.34;10140272;29;20126;-75
2022/07/25 23:07:33;;;;;;;6.97;1.10;;;;;;;20.06;51.29;99995.84;10141061;29;20051;-76
2022/07/25 23:12:37;;;;;;;7.97;1.02;;;;;;;19.31;52.68;99988.09;10162551;29;20126;-76
2022/07/25 23:17:40;;;;;;;7.85;1.00;;;;;;;19.86;51.46;100001.09;10163281;29;20366;-76
2022/07/25 23:22:42;;;;;;;3.97;1.15;;;;;;;19.33;52.67;99986.03;10153225;29;20056;-76
2022/07/25 23:27:48;;;;;;;4.78;1.02;;;;;;;19.48;52.27;100000.47;10163614;29;20055;-76
2022/07/25 23:32:51;;;;;;;5.43;1.05;;;;;;;19.67;52.37;99997.13;10155789;29;20179;-76
2022/07/25 23:37:53;;;;;;;4.55;0.90;;;;;;;19.64;52.16;100008.44;10156813;29;20134;-76